Time;durP1;ratioP1;P1;durP2;ratioP2;P2;SDS_P1;SDS_P2;PMS_P1;PMS_P2;Temp;Humidity;BMP_temperature;BMP_pressure;BME280_temperature;BME280_humidity;BME280_pressure;Samples;Min_cycle;Max_cycle;Signal;HPM_P1;HPM_P2
2021/12/07 03:45:17;;;;;;;40.20;22.75;;;3.70;92.70;;;;;;5613977;25;20168;31
2021/12/07 03:47:44;;;;;;;45.33;22.90;;;3.70;92.80;;;;;;4636982;30;20071;-82
2021/12/07 03:50:12;;;;;;;44.05;24.70;;;3.70;92.90;;;;;;4618283;30;20058;-81
2021/12/07 03:52:38;;;;;;;39.72;22.05;;;3.70;92.80;;;;;;4662202;30;20042;-82
2021/12/07 03:55:05;;;;;;;;;;;3.70;92.80;;;;;;4659291;30;20027;-82
2021/12/07 03:57:32;;;;;;;47.42;23.92;;;3.70;92.80;;;;;;4658853;30;19922;-81
2021/12/07 04:00:00;;;;;;;44.85;26.02;;;3.60;92.80;;;;;;4658661;30;20089;-81
2021/12/07 04:02:26;;;;;;;46.30;24.67;;;3.60;92.80;;;;;;4671856;30;20273;-82
2021/12/07 04:04:59;;;;;;;44.90;22.10;;;3.60;93.00;;;;;;4658288;30;20038;-82
2021/12/07 04:07:26;;;;;;;43.40;22.35;;;3.70;93.00;;;;;;4649394;31;20123;-82
2021/12/07 04:09:53;;;;;;;44.45;22.55;;;3.70;92.80;;;;;;4634358;30;20058;-83
2021/12/07 04:12:19;;;;;;;44.65;22.80;;;3.70;92.60;;;;;;4655697;30;20343;-83
2021/12/07 04:14:45;;;;;;;43.40;23.23;;;3.70;92.80;;;;;;4643335;30;20390;-82
2021/12/07 04:17:11;;;;;;;50.75;24.15;;;3.70;93.00;;;;;;4625565;30;20075;-82
2021/12/07 04:19:36;;;;;;;44.25;22.73;;;3.70;92.90;;;;;;4637988;30;20047;-82
2021/12/07 04:22:02;;;;;;;48.28;24.77;;;3.70;92.90;;;;;;4630856;31;20040;-82
2021/12/07 04:24:28;;;;;;;47.30;24.48;;;3.70;92.90;;;;;;4626151;31;20074;-82
2021/12/07 04:26:54;;;;;;;46.95;24.23;;;3.80;93.00;;;;;;4640212;31;20039;-82
2021/12/07 04:29:21;;;;;;;44.88;24.10;;;3.80;92.90;;;;;;4638315;30;20374;-82
2021/12/07 04:31:47;;;;;;;50.90;25.97;;;3.70;92.80;;;;;;4636400;31;20235;-82
2021/12/07 04:34:13;;;;;;;44.38;23.98;;;3.80;93.00;;;;;;4640345;30;20115;-82
2021/12/07 04:36:39;;;;;;;42.70;23.23;;;3.80;92.80;;;;;;4642950;30;20027;-82
2021/12/07 04:39:04;;;;;;;46.95;23.80;;;3.80;92.70;;;;;;4623639;31;20351;-82
2021/12/07 04:41:33;;;;;;;44.80;23.85;;;3.70;92.70;;;;;;4637053;31;20050;-82
2021/12/07 04:44:02;;;;;;;45.65;24.25;;;3.70;92.70;;;;;;4612636;31;20122;-82
2021/12/07 04:46:45;;;;;;;43.28;24.50;;;3.70;93.00;;;;;;4658807;30;20055;-82
2021/12/07 04:49:43;;;;;;;42.65;22.65;;;3.60;93.00;;;;;;4616710;30;20138;-82
2021/12/07 04:57:46;;;;;;;47.85;24.25;;;3.70;93.10;;;;;;4626079;31;20074;-82
2021/12/07 05:00:15;;;;;;;;;;;3.70;93.10;;;;;;4643833;30;20295;-82
2021/12/07 05:02:43;;;;;;;44.72;24.08;;;3.70;93.00;;;;;;4657172;30;19920;-82
2021/12/07 05:05:12;;;;;;;49.75;25.85;;;3.70;93.10;;;;;;4644111;30;20074;-81
2021/12/07 05:07:43;;;;;;;48.13;25.65;;;3.70;93.10;;;;;;4643692;30;20102;-82
2021/12/07 05:12:57;;;;;;;45.25;24.50;;;3.60;93.30;;;;;;4651004;30;20070;-82
2021/12/07 05:15:43;;;;;;;49.45;25.92;;;3.60;93.50;;;;;;4623877;31;20331;-82
2021/12/07 05:40:00;;;;;;;60.35;28.85;;;3.60;94.00;;;;;;4645920;30;20235;-82
2021/12/07 05:42:26;;;;;;;66.60;30.17;;;3.60;94.00;;;;;;4650465;30;20082;-81
2021/12/07 05:44:53;;;;;;;67.15;31.63;;;3.70;94.00;;;;;;4633602;31;20372;-82
2021/12/07 05:47:20;;;;;;;78.28;34.83;;;3.60;93.90;;;;;;4669576;30;20058;-82
2021/12/07 05:49:46;;;;;;;63.05;30.92;;;3.70;94.00;;;;;;4653242;30;20039;-82
2021/12/07 05:52:11;;;;;;;53.97;27.48;;;3.70;93.90;;;;;;4654230;30;20215;-81
2021/12/07 05:54:38;;;;;;;60.15;27.80;;;3.60;93.90;;;;;;4659264;30;20043;-82
2021/12/07 05:57:05;;;;;;;56.58;28.52;;;3.60;94.10;;;;;;4682581;30;20035;-82
2021/12/07 05:59:31;;;;;;;59.10;29.85;;;3.60;94.20;;;;;;4663503;30;20246;-81
2021/12/07 06:01:57;;;;;;;50.37;26.40;;;3.60;94.30;;;;;;4670704;30;20055;-82
2021/12/07 06:04:22;;;;;;;56.90;28.65;;;3.70;94.30;;;;;;4653265;30;20039;-82
2021/12/07 06:06:48;;;;;;;63.45;28.50;;;3.70;94.30;;;;;;4667887;30;20299;-81
2021/12/07 06:09:14;;;;;;;53.17;26.05;;;3.80;94.20;;;;;;4635445;30;20073;-82
2021/12/07 06:11:42;;;;;;;52.78;27.33;;;3.80;94.20;;;;;;4669637;30;20039;-81
2021/12/07 06:14:11;;;;;;;54.42;27.52;;;3.80;94.10;;;;;;4650537;30;20045;-82
2021/12/07 06:16:37;;;;;;;59.50;28.35;;;3.80;94.20;;;;;;4662830;30;20051;-82
2021/12/07 06:19:03;;;;;;;55.73;27.73;;;3.70;93.90;;;;;;4656054;30;20096;-83
2021/12/07 06:21:29;;;;;;;59.65;28.83;;;3.80;94.10;;;;;;4672320;30;20051;-82
2021/12/07 06:23:55;;;;;;;53.75;26.83;;;3.80;94.10;;;;;;4654934;30;20515;-82
2021/12/07 06:26:21;;;;;;;49.43;26.50;;;3.80;93.90;;;;;;4644306;30;20073;-81
2021/12/07 06:28:47;;;;;;;57.40;29.33;;;3.70;94.00;;;;;;4631358;30;20035;-82
2021/12/07 06:31:13;;;;;;;61.47;29.88;;;3.70;94.00;;;;;;4642673;30;20059;-82
2021/12/07 06:33:39;;;;;;;56.88;28.63;;;3.70;94.00;;;;;;4649413;30;20413;-82
2021/12/07 06:36:05;;;;;;;54.17;27.83;;;3.80;94.10;;;;;;4669758;30;20343;-81
2021/12/07 06:38:33;;;;;;;54.38;27.60;;;3.80;94.10;;;;;;4664625;30;20042;-82
2021/12/07 06:41:01;;;;;;;51.88;26.65;;;3.80;94.10;;;;;;4660542;30;20075;-81
2021/12/07 06:43:27;;;;;;;50.63;28.00;;;3.80;93.90;;;;;;4653673;30;20073;-81
2021/12/07 06:45:53;;;;;;;56.92;26.40;;;3.80;94.10;;;;;;4648579;30;20054;-82
2021/12/07 06:48:19;;;;;;;55.75;25.60;;;3.70;94.00;;;;;;4637154;30;20133;-82
2021/12/07 06:50:45;;;;;;;51.63;25.85;;;3.80;94.10;;;;;;4655997;30;20050;-81
2021/12/07 06:53:11;;;;;;;58.70;29.38;;;3.80;94.20;;;;;;4638926;30;20242;-81
2021/12/07 06:55:37;;;;;;;55.60;27.23;;;3.80;94.20;;;;;;4668707;30;20039;-82
2021/12/07 06:58:04;;;;;;;59.85;29.58;;;3.80;94.10;;;;;;4667695;30;20335;-81
2021/12/07 07:00:31;;;;;;;62.55;29.60;;;3.90;94.30;;;;;;4651275;30;20113;-82
2021/12/07 07:02:57;;;;;;;55.00;27.15;;;3.90;94.10;;;;;;4671695;30;20279;-81
2021/12/07 07:05:23;;;;;;;63.08;27.80;;;3.90;94.10;;;;;;4666794;30;20058;-82
2021/12/07 07:07:49;;;;;;;57.70;28.33;;;3.90;94.00;;;;;;4655835;30;20035;-82
2021/12/07 07:10:17;;;;;;;52.22;27.35;;;3.90;93.90;;;;;;4657680;30;20060;-82
2021/12/07 07:12:44;;;;;;;58.17;28.15;;;4.00;93.90;;;;;;4659683;30;20037;-82
2021/12/07 07:15:10;;;;;;;46.53;24.63;;;4.00;93.90;;;;;;4654249;30;20063;-81
2021/12/07 07:17:36;;;;;;;52.70;26.33;;;4.00;93.70;;;;;;4653600;30;20034;-81
2021/12/07 07:20:04;;;;;;;54.33;27.60;;;4.00;93.50;;;;;;4671249;30;20113;-82
2021/12/07 07:22:30;;;;;;;51.28;26.90;;;4.00;93.30;;;;;;4650702;30;20058;-81
2021/12/07 07:24:56;;;;;;;51.50;26.17;;;4.10;93.30;;;;;;4661639;30;20046;-81
2021/12/07 07:27:22;;;;;;;60.30;28.73;;;4.00;93.20;;;;;;4668420;30;20250;-82
2021/12/07 07:29:48;;;;;;;53.63;27.35;;;4.00;93.20;;;;;;4655885;30;20027;-81
2021/12/07 07:32:14;;;;;;;59.15;29.02;;;4.00;93.20;;;;;;4655409;30;20043;-82
2021/12/07 07:34:40;;;;;;;57.60;28.58;;;4.00;93.20;;;;;;4666284;30;20039;-82
2021/12/07 07:37:06;;;;;;;55.47;27.25;;;3.90;93.20;;;;;;4653154;30;20042;-82
2021/12/07 07:39:32;;;;;;;57.50;29.77;;;3.90;93.50;;;;;;4657503;30;20038;-82
2021/12/07 07:41:57;;;;;;;53.35;27.15;;;3.80;93.50;;;;;;4648898;30;20035;-81
2021/12/07 07:44:34;;;;;;;57.43;28.27;;;3.80;93.70;;;;;;4642574;30;20078;-81
2021/12/07 07:46:59;;;;;;;65.68;28.80;;;3.90;93.80;;;;;;4659777;30;20488;-81
2021/12/07 07:49:25;;;;;;;55.45;28.77;;;3.90;93.90;;;;;;4655476;30;20318;-82
2021/12/07 07:51:51;;;;;;;49.78;26.63;;;3.90;93.70;;;;;;4656656;30;20046;-82
2021/12/07 07:54:17;;;;;;;51.85;27.92;;;3.90;93.50;;;;;;4662931;30;20043;-82
2021/12/07 07:56:44;;;;;;;58.72;28.88;;;4.00;93.70;;;;;;4656546;30;20034;-81
2021/12/07 07:59:10;;;;;;;57.42;28.67;;;4.10;93.80;;;;;;4662733;30;20043;-82
2021/12/07 08:01:35;;;;;;;57.47;27.50;;;4.20;93.60;;;;;;4671398;30;20149;-81
2021/12/07 08:04:03;;;;;;;54.15;27.40;;;4.20;93.50;;;;;;4666593;30;20039;-81
2021/12/07 08:06:29;;;;;;;55.55;25.80;;;4.10;93.20;;;;;;4666004;30;20386;-81
2021/12/07 08:08:56;;;;;;;51.30;27.20;;;4.10;93.20;;;;;;4662863;30;20150;-81
2021/12/07 08:11:22;;;;;;;58.58;27.50;;;4.10;93.10;;;;;;4668660;30;20085;-81
2021/12/07 08:13:48;;;;;;;53.22;29.60;;;4.10;93.30;;;;;;4678136;30;20038;-82
2021/12/07 08:16:17;;;;;;;51.70;26.67;;;4.10;93.30;;;;;;4655835;30;20093;-82
2021/12/07 08:18:48;;;;;;;52.65;27.25;;;4.10;93.00;;;;;;4661066;30;20050;-82
2021/12/07 08:21:16;;;;;;;48.75;26.83;;;4.10;93.10;;;;;;4659315;30;20121;-81
2021/12/07 08:23:41;;;;;;;52.85;26.70;;;4.10;93.10;;;;;;4655210;30;20110;-82
2021/12/07 08:26:09;;;;;;;52.97;26.67;;;4.10;92.90;;;;;;4661108;30;20042;-82
2021/12/07 08:28:36;;;;;;;47.47;25.08;;;4.20;93.20;;;;;;4659405;30;20050;-82
2021/12/07 08:31:02;;;;;;;48.20;26.17;;;4.20;92.80;;;;;;4659341;30;20040;-81
2021/12/07 08:33:29;;;;;;;49.50;25.30;;;4.30;92.80;;;;;;4659061;30;20060;-82
2021/12/07 08:35:55;;;;;;;53.80;27.05;;;4.30;92.60;;;;;;4637944;30;20054;-81
2021/12/07 08:38:21;;;;;;;44.10;23.13;;;4.30;92.80;;;;;;4654448;30;20046;-82
2021/12/07 08:40:53;;;;;;;46.60;22.05;;;4.30;92.40;;;;;;4654117;30;20117;-82
2021/12/07 08:43:23;;;;;;;40.97;21.30;;;4.40;92.00;;;;;;4666574;30;20046;-82
2021/12/07 08:45:50;;;;;;;41.97;22.15;;;4.40;92.00;;;;;;4652188;30;20275;-81
2021/12/07 08:48:17;;;;;;;41.53;22.30;;;4.30;91.10;;;;;;4665636;30;20358;-82
2021/12/07 08:50:44;;;;;;;;;;;4.30;91.40;;;;;;4655552;30;20532;-82
2021/12/07 08:53:13;;;;;;;54.88;21.10;;;4.20;91.30;;;;;;4663763;30;20259;-81
2021/12/07 09:01:12;;;;;;;46.97;22.92;;;4.30;91.50;;;;;;4659073;30;20122;-82
2021/12/07 09:03:39;;;;;;;50.65;23.73;;;4.40;91.60;;;;;;4649146;30;20047;-82
2021/12/07 09:06:06;;;;;;;47.92;25.30;;;4.50;91.50;;;;;;4668532;30;20235;-82
2021/12/07 09:08:32;;;;;;;44.65;23.58;;;4.60;91.60;;;;;;4659226;30;20035;-82
2021/12/07 09:10:58;;;;;;;48.15;22.02;;;4.70;91.10;;;;;;4658431;30;20093;-82
2021/12/07 09:13:26;;;;;;;40.55;23.42;;;4.70;90.80;;;;;;4629147;30;20038;-81
2021/12/07 09:15:54;;;;;;;45.63;23.15;;;4.80;90.90;;;;;;4667525;30;20038;-81
2021/12/07 09:18:19;;;;;;;;;;;4.80;90.70;;;;;;4648695;30;20042;-81
2021/12/07 09:20:45;;;;;;;42.30;22.10;;;4.80;90.50;;;;;;4656539;30;19994;-81
2021/12/07 09:23:11;;;;;;;41.30;22.73;;;4.80;90.50;;;;;;4650568;30;20038;-82
2021/12/07 09:25:37;;;;;;;45.92;24.42;;;4.90;90.40;;;;;;4662316;30;20039;-82
2021/12/07 09:28:04;;;;;;;51.50;25.57;;;4.90;90.40;;;;;;4650692;30;20329;-82
2021/12/07 09:30:30;;;;;;;43.75;23.33;;;4.90;90.20;;;;;;4655050;30;20045;-82
2021/12/07 09:32:56;;;;;;;42.80;23.27;;;4.90;90.40;;;;;;4674109;30;20054;-82
2021/12/07 09:35:24;;;;;;;46.05;23.17;;;4.90;90.40;;;;;;4659797;30;20323;-82
2021/12/07 09:37:51;;;;;;;41.85;22.75;;;4.90;90.70;;;;;;4668927;30;20049;-83
2021/12/07 09:40:19;;;;;;;42.45;22.42;;;4.90;90.20;;;;;;4657248;30;20054;-82
2021/12/07 09:42:46;;;;;;;43.40;23.15;;;4.90;90.10;;;;;;4666467;30;20174;-82
2021/12/07 09:45:15;;;;;;;41.22;22.35;;;4.90;90.30;;;;;;4673488;30;20432;-82
2021/12/07 09:47:41;;;;;;;42.70;23.88;;;4.90;90.20;;;;;;4652912;30;20121;-82
2021/12/07 09:50:10;;;;;;;51.30;24.40;;;4.80;90.40;;;;;;4655097;30;20038;-82
2021/12/07 09:52:36;;;;;;;50.17;25.73;;;4.90;90.70;;;;;;4660882;30;20038;-82
2021/12/07 09:55:04;;;;;;;47.08;23.67;;;4.90;90.70;;;;;;4670472;30;20031;-82
2021/12/07 09:57:30;;;;;;;53.17;25.92;;;5.00;91.00;;;;;;4630228;30;20267;-82
2021/12/07 09:59:56;;;;;;;41.83;23.52;;;5.10;90.90;;;;;;4664432;30;20038;-82
2021/12/07 10:02:22;;;;;;;50.42;25.80;;;5.20;90.60;;;;;;4659785;30;20342;-81
2021/12/07 10:04:48;;;;;;;51.45;28.42;;;5.20;90.40;;;;;;4636949;30;20081;-81
2021/12/07 10:07:14;;;;;;;49.08;24.60;;;5.20;90.40;;;;;;4676497;30;20361;-82
2021/12/07 10:09:55;;;;;;;50.05;26.73;;;5.30;90.70;;;;;;4645093;30;20050;-82
2021/12/07 10:12:24;;;;;;;48.30;25.27;;;5.30;90.40;;;;;;4674072;30;20054;-82
2021/12/07 10:14:50;;;;;;;50.50;26.10;;;5.50;90.50;;;;;;4660741;30;20062;-83
2021/12/07 10:17:25;;;;;;;54.58;26.95;;;5.60;90.20;;;;;;4672469;30;20042;-83
2021/12/07 10:19:50;;;;;;;53.67;27.08;;;5.70;90.40;;;;;;4676828;30;20042;-84
2021/12/07 10:22:20;;;;;;;48.22;25.40;;;5.80;90.10;;;;;;4643240;30;20115;-82
2021/12/07 10:24:50;;;;;;;48.13;26.08;;;6.00;89.80;;;;;;4657706;30;20081;-82
2021/12/07 10:27:44;;;;;;;62.83;25.85;;;6.00;89.30;;;;;;4662455;30;20066;-83
2021/12/07 10:30:19;;;;;;;49.90;25.35;;;6.00;87.30;;;;;;4645062;30;20122;-81
2021/12/07 10:32:58;;;;;;;52.17;24.42;;;5.90;87.20;;;;;;4668733;30;20338;-82
2021/12/07 10:35:33;;;;;;;45.28;25.52;;;5.90;87.40;;;;;;4658248;30;20035;-83
2021/12/07 10:38:13;;;;;;;54.83;29.13;;;5.90;87.00;;;;;;4678489;30;20057;-82
2021/12/07 10:41:07;;;;;;;49.90;26.75;;;5.80;86.30;;;;;;4672147;30;20086;-82
2021/12/07 10:43:45;;;;;;;46.05;25.48;;;5.70;87.20;;;;;;4671714;30;20054;-81
2021/12/07 10:46:36;;;;;;;53.45;28.13;;;5.60;87.70;;;;;;4678957;30;20067;-82
2021/12/07 10:49:46;;;;;;;49.85;26.90;;;5.50;88.10;;;;;;4682794;30;20062;-82
2021/12/07 10:52:33;;;;;;;50.83;26.35;;;5.50;89.30;;;;;;4608170;31;20060;-82
2021/12/07 10:55:08;;;;;;;49.22;27.05;;;5.60;88.60;;;;;;4607518;31;20033;-82
2021/12/07 10:57:51;;;;;;;56.80;26.83;;;5.50;89.00;;;;;;4615012;31;20036;-82
2021/12/07 11:00:34;;;;;;;59.08;28.35;;;5.40;89.80;;;;;;4621460;31;20081;-83
2021/12/07 11:03:03;;;;;;;50.08;26.67;;;5.50;89.50;;;;;;4610584;31;20079;-82
2021/12/07 11:05:33;;;;;;;55.42;29.95;;;5.50;90.00;;;;;;4594447;31;20048;-83
2021/12/07 11:08:01;;;;;;;54.75;28.20;;;5.50;90.00;;;;;;4604194;31;20032;-82
2021/12/07 11:10:30;;;;;;;53.83;27.55;;;5.60;90.40;;;;;;4600030;31;20052;-82
2021/12/07 11:15:30;;;;;;;59.67;28.67;;;5.70;90.00;;;;;;4598966;31;20313;-82
2021/12/07 11:18:04;;;;;;;54.78;27.48;;;5.70;90.00;;;;;;4601533;31;20035;-81
2021/12/07 11:20:30;;;;;;;50.85;27.38;;;5.70;90.20;;;;;;4602546;31;20111;-83
2021/12/07 11:23:05;;;;;;;48.65;26.90;;;5.70;89.80;;;;;;4625387;30;20104;-82
2021/12/07 11:31:24;;;;;;;49.33;25.52;;;5.80;87.50;;;;;;4675402;30;20357;-84
2021/12/07 11:34:03;;;;;;;46.88;25.20;;;5.70;88.30;;;;;;4663936;30;20053;-83
2021/12/07 11:36:34;;;;;;;46.83;24.38;;;5.80;88.70;;;;;;4674174;30;20215;-82
2021/12/07 11:39:17;;;;;;;47.95;25.35;;;5.80;88.30;;;;;;4660664;30;20117;-82
2021/12/07 11:41:48;;;;;;;44.17;25.27;;;6.00;89.20;;;;;;4661903;30;20053;-82
2021/12/07 11:44:13;;;;;;;47.28;26.02;;;6.10;88.00;;;;;;4644204;30;20215;-82
2021/12/07 11:46:47;;;;;;;45.67;23.95;;;6.20;88.20;;;;;;4644760;30;20063;-82
2021/12/07 11:49:13;;;;;;;47.17;23.92;;;6.20;87.10;;;;;;4654773;30;20044;-82
2021/12/07 11:51:41;;;;;;;49.97;26.35;;;6.30;86.30;;;;;;4673656;30;20042;-83
2021/12/07 11:54:07;;;;;;;49.72;26.52;;;6.20;86.40;;;;;;4656569;30;20039;-82
2021/12/07 11:56:34;;;;;;;47.05;24.95;;;6.20;86.60;;;;;;4656538;30;20212;-82
2021/12/07 11:59:00;;;;;;;46.77;24.37;;;6.10;86.20;;;;;;4657996;30;20058;-83
2021/12/07 12:01:25;;;;;;;43.85;24.17;;;6.10;86.10;;;;;;4655249;30;20538;-84
2021/12/07 12:03:51;;;;;;;48.75;26.30;;;6.00;86.90;;;;;;4668611;30;20069;-84
2021/12/07 12:06:17;;;;;;;46.05;25.50;;;6.10;86.80;;;;;;4649433;30;20026;-83
2021/12/07 12:08:43;;;;;;;43.38;24.30;;;6.10;86.60;;;;;;4651652;30;20114;-84
2021/12/07 12:11:26;;;;;;;45.75;26.05;;;6.10;86.30;;;;;;4660674;30;20095;-84
2021/12/07 12:14:36;;;;;;;42.25;23.35;;;6.10;86.60;;;;;;4652649;30;20077;-83
2021/12/07 12:17:13;;;;;;;49.92;27.45;;;6.20;87.20;;;;;;4667188;30;20044;-83
2021/12/07 12:20:04;;;;;;;46.70;24.58;;;6.30;87.30;;;;;;4656953;30;20230;-84
2021/12/07 12:22:42;;;;;;;51.13;26.42;;;6.30;86.60;;;;;;4671344;30;20035;-83
2021/12/07 12:25:12;;;;;;;46.28;24.75;;;6.30;86.80;;;;;;4667305;30;20045;-84
2021/12/07 12:27:39;;;;;;;48.95;25.60;;;6.50;87.20;;;;;;4656177;30;20027;-83
2021/12/07 12:30:27;;;;;;;50.85;26.65;;;6.50;86.00;;;;;;4665963;30;20042;-84
2021/12/07 12:33:05;;;;;;;46.05;25.38;;;6.40;86.30;;;;;;4672999;30;20035;-83
2021/12/07 12:35:42;;;;;;;44.97;24.60;;;6.40;86.90;;;;;;4644277;30;20055;-83
2021/12/07 12:38:37;;;;;;;44.00;24.05;;;6.30;86.60;;;;;;4629013;30;20047;-83
2021/12/07 12:41:04;;;;;;;44.42;23.90;;;6.20;86.80;;;;;;4621715;31;20268;-83
2021/12/07 12:43:40;;;;;;;;;;;6.20;87.20;;;;;;4608135;31;20043;-83
2021/12/07 12:46:06;;;;;;;41.87;23.40;;;6.10;86.70;;;;;;4621522;31;19920;-83
2021/12/07 12:48:35;;;;;;;46.08;23.85;;;6.10;87.40;;;;;;4614389;31;20148;-82
2021/12/07 12:51:01;;;;;;;39.65;23.60;;;6.10;87.70;;;;;;4623471;31;20051;-82
2021/12/07 12:53:31;;;;;;;42.55;23.23;;;6.00;88.00;;;;;;4596100;31;20044;-82
2021/12/07 12:56:08;;;;;;;39.90;23.33;;;6.00;88.50;;;;;;4607153;31;20296;-84
2021/12/07 12:58:36;;;;;;;44.85;24.15;;;5.90;89.10;;;;;;4616460;31;20048;-84
2021/12/07 13:01:20;;;;;;;44.55;25.23;;;5.90;89.70;;;;;;4608965;31;20054;-83
2021/12/07 13:04:22;;;;;;;47.60;26.20;;;5.80;90.00;;;;;;4622195;31;20056;-83
2021/12/07 13:07:29;;;;;;;43.75;26.40;;;5.90;90.30;;;;;;4562689;31;20057;-84
2021/12/07 13:09:52;;;;;;;52.65;28.30;;;5.80;90.70;;;;;;4543616;31;20126;-83
2021/12/07 13:12:18;;;;;;;50.10;27.10;;;5.90;90.80;;;;;;4545291;31;20042;-84
2021/12/07 13:14:50;;;;;;;48.45;27.92;;;5.80;91.00;;;;;;4542518;31;20120;-83
2021/12/07 13:17:44;;;;;;;48.47;27.38;;;5.80;91.10;;;;;;4577873;31;20107;-84
2021/12/07 13:20:25;;;;;;;46.53;26.65;;;5.90;91.20;;;;;;4558478;31;20136;-82
2021/12/07 13:23:11;;;;;;;49.15;29.23;;;6.00;91.20;;;;;;4572863;31;20056;-83
2021/12/07 13:25:51;;;;;;;51.55;29.38;;;6.10;91.20;;;;;;4585506;31;20171;-82
2021/12/07 13:28:28;;;;;;;53.53;28.50;;;6.10;90.90;;;;;;4551782;31;20394;-83
2021/12/07 13:31:08;;;;;;;45.75;27.52;;;6.10;91.10;;;;;;4573418;31;20071;-83
2021/12/07 13:33:39;;;;;;;52.50;28.23;;;6.10;91.10;;;;;;4572651;31;20067;-83
2021/12/07 13:36:32;;;;;;;47.35;28.08;;;6.10;91.00;;;;;;4568064;31;20124;-84
2021/12/07 13:39:20;;;;;;;52.00;27.90;;;6.00;91.00;;;;;;4561403;31;20064;-83
2021/12/07 13:41:46;;;;;;;46.38;27.60;;;6.00;91.20;;;;;;4572428;31;20056;-83
2021/12/07 13:44:13;;;;;;;51.00;28.00;;;6.00;91.20;;;;;;4619131;31;20263;-82
2021/12/07 13:46:39;;;;;;;52.50;30.35;;;6.00;91.40;;;;;;4608124;31;20087;-82
2021/12/07 13:49:08;;;;;;;56.10;28.98;;;6.00;91.60;;;;;;4607857;31;20044;-82
2021/12/07 13:51:36;;;;;;;48.58;27.63;;;6.00;91.70;;;;;;4607906;31;20044;-83
2021/12/07 13:54:04;;;;;;;48.63;28.85;;;6.00;91.50;;;;;;4621587;31;20056;-83
2021/12/07 13:56:40;;;;;;;52.72;27.70;;;5.90;91.90;;;;;;4629385;30;20078;-84
2021/12/07 13:59:12;;;;;;;48.17;26.80;;;5.90;91.70;;;;;;4642304;30;20043;-83
2021/12/07 14:01:41;;;;;;;45.15;25.73;;;5.90;91.80;;;;;;4675193;30;20038;-84
2021/12/07 14:04:08;;;;;;;49.88;26.50;;;5.90;91.80;;;;;;4657365;30;20098;-82
2021/12/07 14:06:35;;;;;;;;;;;5.90;91.80;;;;;;4654600;30;20410;-82
2021/12/07 14:09:10;;;;;;;54.22;26.60;;;5.80;91.80;;;;;;4656504;30;19916;-83
2021/12/07 14:11:37;;;;;;;47.58;26.48;;;5.80;91.90;;;;;;4672652;30;20117;-83
2021/12/07 14:14:15;;;;;;;51.53;28.33;;;5.80;91.80;;;;;;4686110;30;20114;-84
2021/12/07 14:16:43;;;;;;;49.45;26.98;;;5.80;92.10;;;;;;4662192;30;20035;-82
2021/12/07 14:19:09;;;;;;;51.22;27.50;;;5.80;92.00;;;;;;4647927;30;20075;-82
2021/12/07 14:21:35;;;;;;;47.10;26.95;;;5.70;92.00;;;;;;4661724;30;20050;-83
2021/12/07 14:24:05;;;;;;;49.60;26.00;;;5.80;92.20;;;;;;4656237;30;20066;-82
2021/12/07 14:26:36;;;;;;;45.53;25.98;;;5.80;92.10;;;;;;4660820;30;20394;-82
2021/12/07 14:29:15;;;;;;;47.15;26.90;;;5.80;92.10;;;;;;4662273;30;20043;-83
2021/12/07 14:31:44;;;;;;;46.58;25.92;;;5.70;92.20;;;;;;4673631;30;20049;-83
2021/12/07 14:34:31;;;;;;;50.45;27.02;;;5.70;92.50;;;;;;4675176;30;20231;-83
2021/12/07 14:37:01;;;;;;;46.80;26.25;;;5.70;92.60;;;;;;4661800;30;20050;-83
2021/12/07 14:39:38;;;;;;;58.50;29.42;;;5.70;92.70;;;;;;4673025;30;20283;-83
2021/12/07 14:42:06;;;;;;;56.97;28.23;;;5.70;92.80;;;;;;4654814;30;20051;-83
2021/12/07 14:44:34;;;;;;;57.88;27.60;;;5.70;92.90;;;;;;4671716;30;20035;-82
2021/12/07 14:47:05;;;;;;;52.55;28.17;;;5.60;93.10;;;;;;4661538;30;20094;-82
2021/12/07 14:49:55;;;;;;;48.90;28.10;;;5.60;93.30;;;;;;4651375;30;20039;-84
2021/12/07 14:52:30;;;;;;;54.83;29.13;;;5.60;93.40;;;;;;4668379;30;20056;-83
2021/12/07 14:54:57;;;;;;;48.35;27.63;;;5.50;93.70;;;;;;4664456;30;20031;-82
2021/12/07 14:57:23;;;;;;;;;;;5.50;93.70;;;;;;4677092;30;20023;-82
2021/12/07 14:59:57;;;;;;;47.83;27.27;;;5.50;94.00;;;;;;4671836;30;19991;-82
2021/12/07 15:02:25;;;;;;;47.85;27.05;;;5.50;94.00;;;;;;4652483;30;20099;-82
2021/12/07 15:04:59;;;;;;;43.90;27.27;;;5.50;94.00;;;;;;4665718;30;20031;-83
2021/12/07 15:07:31;;;;;;;47.78;26.02;;;5.50;94.00;;;;;;4669720;30;20042;-82
2021/12/07 15:10:03;;;;;;;60.08;27.55;;;5.50;93.90;;;;;;4659619;30;20047;-83
2021/12/07 15:12:30;;;;;;;58.78;29.10;;;5.50;94.00;;;;;;4667692;30;20043;-83
2021/12/07 15:15:00;;;;;;;46.53;27.35;;;5.50;94.10;;;;;;4670287;30;20030;-84
2021/12/07 15:17:27;;;;;;;52.13;27.92;;;5.40;94.20;;;;;;4655346;30;20054;-83
2021/12/07 15:19:53;;;;;;;;;;;5.40;94.30;;;;;;4642086;30;20045;-82
2021/12/07 15:22:21;;;;;;;46.22;25.52;;;5.40;94.20;;;;;;4659625;30;19920;-83
2021/12/07 15:24:47;;;;;;;48.70;24.83;;;5.40;94.20;;;;;;4658249;30;20023;-83
2021/12/07 15:27:13;;;;;;;41.40;24.70;;;5.40;94.20;;;;;;4631548;30;20035;-83
2021/12/07 15:29:40;;;;;;;42.88;24.98;;;5.40;94.30;;;;;;4646583;30;20045;-83
2021/12/07 15:32:08;;;;;;;45.63;25.00;;;5.40;94.30;;;;;;4688625;30;20360;-83
2021/12/07 15:34:39;;;;;;;49.45;27.05;;;5.40;94.30;;;;;;4649346;30;20050;-83
2021/12/07 15:37:14;;;;;;;44.53;25.80;;;5.40;94.40;;;;;;4666291;30;20050;-83
2021/12/07 15:39:46;;;;;;;50.38;26.15;;;5.40;94.30;;;;;;4659236;30;20238;-83
2021/12/07 15:42:19;;;;;;;47.92;25.80;;;5.40;94.40;;;;;;4660694;30;20115;-83
2021/12/07 15:44:57;;;;;;;47.45;24.95;;;5.40;94.40;;;;;;4659083;30;20078;-83
2021/12/07 15:47:29;;;;;;;50.17;25.90;;;5.40;94.50;;;;;;4662787;30;20109;-83
2021/12/07 15:49:58;;;;;;;43.55;24.42;;;5.40;94.50;;;;;;4665177;30;20046;-82
2021/12/07 15:52:30;;;;;;;46.38;26.05;;;5.40;94.40;;;;;;4669694;30;20035;-82
2021/12/07 15:55:02;;;;;;;42.40;25.77;;;5.50;94.40;;;;;;4663130;30;20034;-83
2021/12/07 15:57:48;;;;;;;45.22;25.52;;;5.50;94.40;;;;;;4659019;30;20043;-83
2021/12/07 16:00:29;;;;;;;53.00;26.60;;;5.50;94.30;;;;;;4665652;30;20042;-82
2021/12/07 16:03:07;;;;;;;48.10;25.20;;;5.50;94.20;;;;;;4654269;30;20266;-84
2021/12/07 16:05:39;;;;;;;47.55;25.52;;;5.50;94.20;;;;;;4669287;30;20043;-82
2021/12/07 16:08:13;;;;;;;46.35;25.00;;;5.60;94.10;;;;;;4670267;30;20039;-82
2021/12/07 16:10:40;;;;;;;44.92;25.38;;;5.50;94.00;;;;;;4675004;30;20043;-82
2021/12/07 16:13:15;;;;;;;46.83;25.40;;;5.50;93.90;;;;;;4651007;30;20054;-82
2021/12/07 16:15:54;;;;;;;47.00;25.40;;;5.50;93.90;;;;;;4655397;30;20038;-82
2021/12/07 16:18:22;;;;;;;51.28;28.08;;;5.50;93.90;;;;;;4655431;30;20287;-83
2021/12/07 16:20:48;;;;;;;51.95;26.95;;;5.40;94.00;;;;;;4643578;30;20295;-82
2021/12/07 16:23:13;;;;;;;56.25;28.75;;;5.50;94.10;;;;;;4634190;30;20035;-82
2021/12/07 16:25:39;;;;;;;51.70;27.10;;;5.50;94.10;;;;;;4671498;30;20095;-83
2021/12/07 16:28:09;;;;;;;55.00;26.75;;;5.50;93.80;;;;;;4643650;30;20041;-83
2021/12/07 16:30:37;;;;;;;53.95;27.85;;;5.50;93.90;;;;;;4657506;30;20042;-83
2021/12/07 16:33:04;;;;;;;52.05;27.75;;;5.50;94.00;;;;;;4674221;30;20038;-83
2021/12/07 16:35:30;;;;;;;58.83;28.90;;;5.50;94.00;;;;;;4643068;30;20055;-83
2021/12/07 16:37:57;;;;;;;56.95;28.42;;;5.60;94.00;;;;;;4657340;30;20039;-83
2021/12/07 16:40:24;;;;;;;58.47;31.35;;;5.60;94.00;;;;;;4661392;30;20042;-83
2021/12/07 16:42:52;;;;;;;58.30;31.05;;;5.60;93.90;;;;;;4659922;30;20099;-83
2021/12/07 16:45:24;;;;;;;58.30;30.92;;;5.50;93.90;;;;;;4661200;30;20043;-83
2021/12/07 16:47:51;;;;;;;60.80;31.30;;;5.50;93.90;;;;;;4656777;30;20274;-83
2021/12/07 16:50:18;;;;;;;65.50;32.40;;;5.50;93.60;;;;;;4669689;30;20086;-83
2021/12/07 16:52:44;;;;;;;;;;;5.50;93.40;;;;;;4651481;30;20062;-83
2021/12/07 16:55:16;;;;;;;75.73;34.80;;;5.40;93.40;;;;;;4655639;30;19919;-83
2021/12/07 16:57:42;;;;;;;74.30;36.03;;;5.40;93.60;;;;;;4666389;30;20045;-83
2021/12/07 17:00:17;;;;;;;51.85;25.95;;;5.30;93.60;;;;;;4672867;30;20234;-83
2021/12/07 17:02:43;;;;;;;55.75;29.80;;;5.30;93.70;;;;;;4651705;30;20047;-83
2021/12/07 17:05:12;;;;;;;53.92;28.95;;;5.30;93.40;;;;;;4667883;30;20043;-83
2021/12/07 17:07:42;;;;;;;62.22;30.08;;;5.30;93.30;;;;;;4676446;30;20251;-83
2021/12/07 17:10:11;;;;;;;60.30;31.45;;;5.30;92.90;;;;;;4669671;30;20086;-83
2021/12/07 17:12:37;;;;;;;59.47;29.63;;;5.20;93.30;;;;;;4672280;30;20060;-83
2021/12/07 17:15:05;;;;;;;64.28;31.50;;;5.10;93.90;;;;;;4657005;30;20100;-83
2021/12/07 17:17:31;;;;;;;60.42;30.98;;;5.10;94.00;;;;;;4656052;30;20101;-82
2021/12/07 17:19:56;;;;;;;64.90;33.08;;;5.20;94.20;;;;;;4677601;30;20042;-83
2021/12/07 17:22:22;;;;;;;61.47;33.60;;;5.20;94.40;;;;;;4662480;30;20035;-83
2021/12/07 17:24:48;;;;;;;61.40;31.35;;;5.10;94.60;;;;;;4675807;30;20322;-83